Time;durP1;ratioP1;P1;durP2;ratioP2;P2;SDS_P1;SDS_P2;PMS_P1;PMS_P2;Temp;Humidity;BMP_temperature;BMP_pressure;BME280_temperature;BME280_humidity;BME280_pressure;Samples;Min_cycle;Max_cycle;Signal;HPM_P1;HPM_P2
2022/10/27 00:01:22;;;;;;;0.13;0.13;;;11.00;99.90;;;;;;5127136;28;20075;-77
2022/10/27 00:03:55;;;;;;;0.10;0.10;;;10.90;99.90;;;;;;5126675;28;20020;-77
2022/10/27 00:06:25;;;;;;;1.15;1.10;;;10.90;99.90;;;;;;5123904;28;20107;-76
2022/10/27 00:08:52;;;;;;;0.40;0.40;;;10.90;99.90;;;;;;5126281;28;20320;-77
2022/10/27 00:11:18;;;;;;;0.20;0.20;;;10.80;99.90;;;;;;5109527;28;20034;-76
2022/10/27 00:13:46;;;;;;;0.95;0.95;;;10.80;99.90;;;;;;5125679;28;20027;-76
2022/10/27 00:16:16;;;;;;;1.00;1.00;;;10.80;99.90;;;;;;5125807;28;20026;-76
2022/10/27 00:18:45;;;;;;;0.20;0.20;;;10.80;99.90;;;;;;5125165;28;20011;-77
2022/10/27 00:21:16;;;;;;;0.60;0.60;;;10.80;99.90;;;;;;5125448;28;20022;-77
2022/10/27 00:23:46;;;;;;;0.10;0.10;;;10.70;99.90;;;;;;5126201;28;20047;-76
2022/10/27 00:26:24;;;;;;;0.10;0.10;;;10.70;99.90;;;;;;5125138;28;20076;-76
2022/10/27 00:28:53;;;;;;;0.20;0.20;;;10.70;99.90;;;;;;5125755;28;20084;-77
2022/10/27 00:31:26;;;;;;;0.10;0.10;;;10.70;99.90;;;;;;5108130;28;20038;-76
2022/10/27 00:33:52;;;;;;;0.10;0.10;;;10.60;99.90;;;;;;5124626;28;20028;-77
2022/10/27 00:36:39;;;;;;;0.10;0.10;;;10.70;99.90;;;;;;5122354;28;20027;-77
2022/10/27 00:39:06;;;;;;;0.47;0.47;;;10.60;99.90;;;;;;5102917;28;20034;-77
2022/10/27 00:41:38;;;;;;;0.75;0.75;;;10.70;99.90;;;;;;5117858;28;20247;-76
2022/10/27 00:44:39;;;;;;;0.15;0.15;;;10.60;99.90;;;;;;5105502;28;20266;-77
2022/10/27 00:47:23;;;;;;;0.08;0.08;;;10.60;99.90;;;;;;5105763;28;20016;-77
2022/10/27 00:50:07;;;;;;;0.10;0.10;;;10.60;99.90;;;;;;5105012;28;20027;-77
2022/10/27 00:52:50;;;;;;;0.10;0.10;;;10.60;99.90;;;;;;5104482;28;20047;-77
2022/10/27 00:55:26;;;;;;;0.38;0.38;;;12.50;99.90;;;;;;5105154;28;20406;-76
2022/10/27 00:58:02;;;;;;;0.10;0.10;;;10.50;99.90;;;;;;5123548;28;20008;-76
2022/10/27 01:00:28;;;;;;;0.77;0.77;;;10.50;99.90;;;;;;5122582;28;20047;-77
2022/10/27 01:02:55;;;;;;;0.20;0.20;;;10.50;99.90;;;;;;5122980;28;20081;-76
2022/10/27 01:05:26;;;;;;;0.10;0.10;;;10.50;99.90;;;;;;5121069;28;20370;-76
2022/10/27 01:07:56;;;;;;;0.10;0.10;;;10.40;99.90;;;;;;5121051;28;20043;-76
2022/10/27 01:10:23;;;;;;;0.40;0.40;;;10.40;99.90;;;;;;5122274;28;20016;-76
2022/10/27 01:12:49;;;;;;;0.13;0.13;;;10.40;99.90;;;;;;5123480;28;20031;-76
2022/10/27 01:15:15;;;;;;;0.10;0.10;;;10.30;99.90;;;;;;5103489;28;20157;-77
2022/10/27 01:18:02;;;;;;;0.10;0.10;;;10.30;99.90;;;;;;5122644;28;20067;-76
2022/10/27 01:20:49;;;;;;;0.10;0.10;;;10.30;99.90;;;;;;5123841;28;20039;-76
2022/10/27 01:24:05;;;;;;;0.10;0.10;;;10.20;99.90;;;;;;5125095;28;20039;-77
2022/10/27 01:27:11;;;;;;;1.38;1.38;;;10.20;99.90;;;;;;5123395;28;20108;-77
2022/10/27 01:30:05;;;;;;;0.30;0.30;;;10.20;99.90;;;;;;5123229;28;20026;-76
2022/10/27 01:32:40;;;;;;;0.20;0.20;;;10.20;99.90;;;;;;5020463;28;20052;-77
2022/10/27 01:35:11;;;;;;;0.15;0.15;;;10.20;99.90;;;;;;5021943;28;20030;-77
2022/10/27 01:37:40;;;;;;;0.10;0.10;;;10.30;99.90;;;;;;5019054;28;20049;-77
2022/10/27 01:40:26;;;;;;;0.10;0.10;;;10.20;99.90;;;;;;5018059;28;20018;-76
2022/10/27 01:43:02;;;;;;;0.20;0.20;;;10.20;99.90;;;;;;5021632;28;20021;-76
2022/10/27 01:45:33;;;;;;;0.10;0.10;;;10.20;99.90;;;;;;5020881;28;20052;-76
2022/10/27 01:47:59;;;;;;;0.17;0.17;;;10.20;99.90;;;;;;5021936;28;20014;-77
2022/10/27 01:50:35;;;;;;;0.10;0.10;;;10.20;99.90;;;;;;5018273;28;20045;-76
2022/10/27 01:53:00;;;;;;;0.15;0.15;;;10.20;99.90;;;;;;5020057;28;20117;-77
2022/10/27 01:55:26;;;;;;;0.20;0.20;;;10.10;99.90;;;;;;5017896;28;20029;-76
2022/10/27 01:58:19;;;;;;;0.10;0.10;;;10.10;99.90;;;;;;5020070;28;20018;-76
2022/10/27 02:01:00;;;;;;;1.40;1.40;;;10.00;99.90;;;;;;5021514;28;20057;-76
2022/10/27 02:03:39;;;;;;;0.10;0.10;;;10.10;99.90;;;;;;5017473;28;20038;-77
2022/10/27 02:06:45;;;;;;;0.10;0.10;;;10.00;99.90;;;;;;5021007;28;20097;-76
2022/10/27 02:09:48;;;;;;;0.15;0.15;;;10.00;99.90;;;;;;5047120;28;20032;-76
2022/10/27 02:12:36;;;;;;;0.10;0.10;;;10.00;99.90;;;;;;5122800;28;20024;-77
2022/10/27 02:15:06;;;;;;;0.10;0.10;;;9.90;99.90;;;;;;5105221;28;20047;-76
2022/10/27 02:17:39;;;;;;;0.20;0.20;;;9.90;99.90;;;;;;5122741;28;20102;-77
2022/10/27 02:20:11;;;;;;;0.10;0.10;;;9.90;99.90;;;;;;5125395;28;20028;-77
2022/10/27 02:22:38;;;;;;;0.03;0.03;;;9.80;99.90;;;;;;5125578;28;20025;-77
2022/10/27 02:25:04;;;;;;;0.10;0.10;;;9.80;99.90;;;;;;5124390;28;20409;-78
2022/10/27 02:27:55;;;;;;;6.28;5.93;;;9.80;99.90;;;;;;5120024;28;20319;-80
2022/10/27 02:30:32;;;;;;;0.85;0.85;;;9.80;99.90;;;;;;5117440;28;20024;-81
2022/10/27 02:32:58;;;;;;;0.03;0.03;;;9.70;99.90;;;;;;5118902;28;20028;-77
2022/10/27 02:35:24;;;;;;;1.40;1.40;;;11.30;99.90;;;;;;5123009;28;20043;-77
2022/10/27 02:37:50;;;;;;;0.10;0.10;;;9.80;99.90;;;;;;5124392;28;20023;-77
2022/10/27 02:40:18;;;;;;;0.10;0.10;;;9.70;99.90;;;;;;5125542;28;20020;-79
2022/10/27 02:42:44;;;;;;;0.10;0.10;;;9.70;99.90;;;;;;5127452;28;20071;-77
2022/10/27 02:45:10;;;;;;;0.10;0.10;;;9.70;99.90;;;;;;5125263;28;20045;-76
2022/10/27 02:47:37;;;;;;;0.17;0.17;;;9.70;99.90;;;;;;5125986;28;20031;-77
2022/10/27 02:50:05;;;;;;;0.10;0.10;;;9.70;99.90;;;;;;5125682;28;20028;-76
2022/10/27 02:52:31;;;;;;;0.10;0.10;;;9.70;99.90;;;;;;5131114;28;20119;-77
2022/10/27 02:54:59;;;;;;;0.10;0.10;;;9.70;99.90;;;;;;5130925;28;20084;-76
2022/10/27 02:57:26;;;;;;;0.10;0.10;;;9.70;99.90;;;;;;5130284;28;20019;-76
2022/10/27 02:59:51;;;;;;;0.10;0.10;;;9.60;99.90;;;;;;5130158;28;20050;-77
2022/10/27 03:02:33;;;;;;;0.10;0.10;;;9.50;99.90;;;;;;5129984;28;20019;-77
2022/10/27 03:04:59;;;;;;;0.15;0.15;;;9.40;99.90;;;;;;5129729;28;20069;-77
2022/10/27 03:07:27;;;;;;;0.10;0.10;;;9.40;99.90;;;;;;5128129;28;20016;-77
2022/10/27 03:10:04;;;;;;;0.10;0.10;;;9.40;99.90;;;;;;5128836;28;20074;-77
2022/10/27 03:12:30;;;;;;;0.10;0.10;;;9.40;99.90;;;;;;5128065;28;20036;-78
2022/10/27 03:14:55;;;;;;;6.95;6.70;;;9.40;99.90;;;;;;5127572;28;20019;-77
2022/10/27 03:17:22;;;;;;;0.20;0.20;;;9.40;99.90;;;;;;5129054;28;20098;-77
2022/10/27 03:19:56;;;;;;;0.80;0.80;;;9.30;99.90;;;;;;5131647;28;20085;-76
2022/10/27 03:22:26;;;;;;;0.10;0.10;;;9.30;99.90;;;;;;5129146;28;20081;-76
2022/10/27 03:24:56;;;;;;;0.08;0.08;;;9.30;99.90;;;;;;5127955;28;20022;-76
2022/10/27 03:27:21;;;;;;;0.10;0.10;;;9.30;99.90;;;;;;5127848;28;20024;-76
2022/10/27 03:29:47;;;;;;;0.10;0.10;;;9.30;99.90;;;;;;5128991;28;20022;-76
2022/10/27 03:32:14;;;;;;;0.20;0.20;;;9.30;99.90;;;;;;5129465;28;20047;-76
2022/10/27 03:34:46;;;;;;;0.10;0.10;;;9.30;99.90;;;;;;5110467;28;20106;-76
2022/10/27 03:37:11;;;;;;;0.17;0.17;;;8.50;99.90;;;;;;5129453;28;20067;-77
2022/10/27 03:39:47;;;;;;;0.10;0.10;;;9.20;99.90;;;;;;5130256;28;20031;-78
2022/10/27 03:42:14;;;;;;;0.15;0.15;;;9.20;99.90;;;;;;5128307;28;20023;-77
2022/10/27 03:44:56;;;;;;;2.10;2.00;;;9.20;99.90;;;;;;5128506;28;20106;-76
2022/10/27 03:47:22;;;;;;;0.08;0.08;;;9.10;99.90;;;;;;5127578;28;20040;-77
2022/10/27 03:49:51;;;;;;;0.00;0.00;;;9.10;99.90;;;;;;5127040;28;20050;-78
2022/10/27 03:52:17;;;;;;;0.00;0.00;;;9.10;99.90;;;;;;5127640;28;20036;-77
2022/10/27 03:54:42;;;;;;;0.28;0.28;;;9.00;99.90;;;;;;5122885;28;20424;-76
2022/10/27 03:57:13;;;;;;;0.10;0.10;;;9.00;99.90;;;;;;5119143;28;20080;-76
2022/10/27 03:59:39;;;;;;;0.00;0.00;;;9.00;99.90;;;;;;5099480;28;20031;-76
2022/10/27 04:02:04;;;;;;;0.10;0.10;;;9.00;99.90;;;;;;5100178;28;20035;-76
2022/10/27 04:04:31;;;;;;;0.13;0.13;;;9.00;99.90;;;;;;5117113;28;20266;-77
2022/10/27 04:06:57;;;;;;;0.10;0.10;;;9.00;99.90;;;;;;5117954;28;20308;-78
2022/10/27 04:09:23;;;;;;;0.00;0.00;;;9.00;99.90;;;;;;5117373;28;20035;-76
2022/10/27 04:12:04;;;;;;;0.40;0.40;;;9.00;99.90;;;;;;5107829;28;20028;-76
2022/10/27 04:14:30;;;;;;;0.00;0.00;;;9.10;99.90;;;;;;5121315;28;20031;-77
2022/10/27 04:16:56;;;;;;;0.00;0.00;;;9.10;99.90;;;;;;5120736;28;20235;-77
2022/10/27 04:19:23;;;;;;;0.10;0.10;;;9.00;99.90;;;;;;5120689;28;20018;-76
2022/10/27 04:21:48;;;;;;;0.00;0.00;;;9.00;99.90;;;;;;5117175;28;20065;-76
2022/10/27 04:24:14;;;;;;;6.00;5.60;;;9.00;99.90;;;;;;5115326;28;20008;-77
2022/10/27 04:26:41;;;;;;;0.03;0.03;;;9.10;99.90;;;;;;5113630;28;20073;-76
2022/10/27 04:29:07;;;;;;;0.10;0.10;;;7.10;99.90;;;;;;5105388;28;20042;-76
2022/10/27 04:31:33;;;;;;;3.63;3.53;;;9.00;99.90;;;;;;5104618;28;20693;-76
2022/10/27 04:36:40;;;;;;;0.10;0.10;;;9.00;99.90;;;;;;5270158;22;20051;-76
2022/10/27 04:39:06;;;;;;;0.10;0.10;;;8.90;99.90;;;;;;5104204;28;20054;-76
2022/10/27 04:41:31;;;;;;;9.50;9.07;;;9.00;99.90;;;;;;5085956;28;20023;-75
2022/10/27 04:43:57;;;;;;;0.10;0.10;;;9.00;99.90;;;;;;5116400;28;20033;-77
2022/10/27 04:46:23;;;;;;;0.30;0.30;;;9.00;99.90;;;;;;5130487;28;20072;-77
2022/10/27 04:48:49;;;;;;;0.10;0.10;;;9.00;99.90;;;;;;5129922;28;20034;-76
2022/10/27 04:51:15;;;;;;;0.10;0.10;;;9.00;99.90;;;;;;5127593;28;20095;-78
2022/10/27 04:53:41;;;;;;;0.10;0.10;;;9.00;99.90;;;;;;5121148;28;20062;-77
2022/10/27 04:56:07;;;;;;;17.23;16.25;;;8.90;99.90;;;;;;5120840;28;20016;-77
2022/10/27 04:58:33;;;;;;;0.15;0.15;;;8.90;99.90;;;;;;5119294;28;20338;-78
2022/10/27 05:01:11;;;;;;;0.10;0.10;;;8.90;99.90;;;;;;5117963;28;20020;-77
2022/10/27 05:03:38;;;;;;;2.15;2.05;;;8.90;99.90;;;;;;5120769;28;20316;-78
2022/10/27 05:06:04;;;;;;;0.10;0.10;;;8.90;99.90;;;;;;5115739;28;20012;-76
2022/10/27 05:08:31;;;;;;;2.75;2.65;;;9.00;99.90;;;;;;5114468;28;20011;-76
2022/10/27 05:10:57;;;;;;;0.10;0.10;;;8.90;99.90;;;;;;5107867;28;20030;-76
2022/10/27 05:13:23;;;;;;;0.10;0.10;;;8.80;99.90;;;;;;5125333;28;20034;-76
2022/10/27 05:15:50;;;;;;;0.20;0.20;;;8.80;99.90;;;;;;5128367;28;20023;-76
2022/10/27 05:18:15;;;;;;;0.10;0.10;;;8.70;99.90;;;;;;5127977;28;20039;-77
2022/10/27 05:20:41;;;;;;;0.10;0.10;;;8.70;99.90;;;;;;5127552;28;20483;-76
2022/10/27 05:23:10;;;;;;;0.45;0.45;;;8.60;99.90;;;;;;5129125;28;20008;-76
2022/10/27 05:25:38;;;;;;;0.10;0.10;;;8.60;99.90;;;;;;5122191;28;20024;-77
2022/10/27 05:31:54;;;;;;;0.17;0.17;;;9.00;99.90;;;;;;5102929;28;20045;-76
2022/10/27 05:45:14;;;;;;;0.00;0.00;;;9.30;99.90;;;;;;5023800;28;20243;-78
2022/10/27 05:47:40;;;;;;;0.00;0.00;;;8.60;99.90;;;;;;5008232;28;20248;-78
2022/10/27 05:50:06;;;;;;;0.00;0.00;;;8.60;99.90;;;;;;5007038;28;20274;-78
2022/10/27 05:52:31;;;;;;;0.20;0.20;;;8.60;99.90;;;;;;4999235;28;20088;-77
2022/10/27 05:54:57;;;;;;;0.10;0.10;;;8.70;99.90;;;;;;5018373;28;20141;-78
2022/10/27 05:57:24;;;;;;;4.22;4.07;;;8.70;99.90;;;;;;4995886;28;20034;-77
2022/10/27 05:59:50;;;;;;;0.00;0.00;;;8.70;99.90;;;;;;5018687;28;20040;-78
2022/10/27 06:02:16;;;;;;;0.10;0.10;;;8.70;99.90;;;;;;5014812;28;20061;-79
2022/10/27 06:04:42;;;;;;;0.10;0.10;;;8.80;99.90;;;;;;5027972;28;20048;-79
2022/10/27 06:07:07;;;;;;;0.20;0.20;;;8.80;99.90;;;;;;5004421;28;20030;-78
2022/10/27 06:09:33;;;;;;;0.10;0.10;;;8.60;99.90;;;;;;5018789;28;20037;-78
2022/10/27 06:12:22;;;;;;;0.30;0.30;;;8.90;99.90;;;;;;5026622;28;20033;-79
2022/10/27 06:14:48;;;;;;;0.30;0.30;;;8.90;99.90;;;;;;5002241;28;20331;-78
2022/10/27 06:17:13;;;;;;;0.10;0.10;;;9.10;99.90;;;;;;5018929;28;20038;-79
2022/10/27 06:19:39;;;;;;;18.05;15.25;;;9.10;99.90;;;;;;5024245;28;20041;-81
2022/10/27 06:22:05;;;;;;;0.10;0.10;;;10.60;99.90;;;;;;5088606;28;20043;-78
2022/10/27 06:24:33;;;;;;;0.00;0.00;;;9.20;99.90;;;;;;5122378;28;20024;-78
2022/10/27 06:35:33;;;;;;;0.10;0.10;;;9.40;99.90;;;;;;5269381;22;20127;-75
2022/10/27 06:37:59;;;;;;;0.10;0.10;;;9.50;99.90;;;;;;5115883;28;20023;-77
2022/10/27 06:40:25;;;;;;;0.63;0.63;;;9.60;99.90;;;;;;5118261;28;20032;-77
2022/10/27 07:03:23;;;;;;;0.00;0.00;;;10.20;99.90;;;;;;3348272;26;20066;-77
2022/10/27 07:05:49;;;;;;;2.28;2.17;;;10.20;99.90;;;;;;5125915;23;20051;-78
2022/10/27 07:08:15;;;;;;;0.10;0.10;;;10.40;99.90;;;;;;5117084;28;20028;-77
2022/10/27 07:10:40;;;;;;;0.10;0.10;;;10.60;99.90;;;;;;5112676;28;20028;-78
2022/10/27 07:13:06;;;;;;;0.13;0.13;;;10.60;99.90;;;;;;5123049;28;20137;-79
2022/10/27 07:15:34;;;;;;;0.20;0.20;;;10.70;99.90;;;;;;5119964;28;20028;-77
2022/10/27 07:18:02;;;;;;;2.42;2.35;;;10.70;99.90;;;;;;5101259;28;20027;-77
2022/10/27 07:20:29;;;;;;;0.55;0.55;;;10.80;99.90;;;;;;5094844;28;20045;-79
2022/10/27 07:22:56;;;;;;;2.22;2.13;;;10.80;99.90;;;;;;5092489;28;20075;-79
2022/10/27 07:25:23;;;;;;;0.47;0.47;;;10.90;99.90;;;;;;5109767;28;20038;-78
2022/10/27 07:27:52;;;;;;;0.98;0.98;;;11.10;99.90;;;;;;5108945;28;20569;-78
2022/10/27 07:30:20;;;;;;;0.30;0.30;;;11.20;99.90;;;;;;5109362;28;20019;-77
2022/10/27 07:32:46;;;;;;;2.58;2.47;;;11.10;99.90;;;;;;5107577;28;20100;-82
2022/10/27 07:35:13;;;;;;;0.20;0.20;;;12.90;99.90;;;;;;5108620;28;20046;-84
2022/10/27 07:37:45;;;;;;;0.15;0.15;;;11.50;99.90;;;;;;5103859;28;20026;-77
2022/10/27 07:40:13;;;;;;;1.80;1.80;;;11.70;99.90;;;;;;5102287;28;20024;-78
2022/10/27 07:42:46;;;;;;;7.18;6.70;;;11.80;99.90;;;;;;5102073;28;20047;-77
2022/10/27 07:45:14;;;;;;;1.23;1.23;;;12.00;99.90;;;;;;5101482;28;20038;-79
2022/10/27 07:47:47;;;;;;;6.68;6.32;;;12.10;99.90;;;;;;5100136;28;20076;-79
2022/10/27 07:50:14;;;;;;;1.30;1.30;;;12.20;99.90;;;;;;5081939;28;20023;-81
2022/10/27 07:52:44;;;;;;;22.35;20.27;;;12.30;99.90;;;;;;5081990;28;20513;-83
2022/10/27 07:55:11;;;;;;;0.50;0.50;;;12.50;99.90;;;;;;5098624;28;20035;-79
2022/10/27 07:57:37;;;;;;;0.20;0.20;;;12.60;99.90;;;;;;5081407;28;20497;-86
2022/10/27 08:00:09;;;;;;;4.38;4.03;;;12.80;99.90;;;;;;5100379;28;20058;-79
2022/10/27 08:02:34;;;;;;;0.30;0.30;;;12.80;99.90;;;;;;5081864;28;20032;-83
2022/10/27 08:05:01;;;;;;;0.75;0.75;;;13.00;99.90;;;;;;5100347;28;20600;-78
2022/10/27 08:07:27;;;;;;;0.30;0.30;;;13.10;99.90;;;;;;5100222;28;20238;-78
2022/10/27 08:09:53;;;;;;;1.10;1.10;;;13.10;99.90;;;;;;5101162;28;20023;-80
2022/10/27 08:12:19;;;;;;;0.55;0.55;;;13.20;99.90;;;;;;5100750;28;20024;-87
2022/10/27 08:14:44;;;;;;;2.38;2.28;;;13.40;99.90;;;;;;5099697;28;20028;-77
2022/10/27 08:17:12;;;;;;;5.13;4.90;;;13.60;99.90;;;;;;5099939;28;20391;-81
2022/10/27 08:19:38;;;;;;;2.63;2.45;;;13.80;99.90;;;;;;5101144;28;20020;-78
2022/10/27 08:22:04;;;;;;;0.50;0.50;;;13.90;99.90;;;;;;5100258;28;20012;-79
2022/10/27 08:24:29;;;;;;;2.13;2.00;;;14.10;99.90;;;;;;5099634;28;20030;-79
2022/10/27 08:26:55;;;;;;;0.22;0.22;;;14.20;99.90;;;;;;5099872;28;20027;-76
2022/10/27 08:29:21;;;;;;;13.68;10.10;;;14.40;99.90;;;;;;5100310;28;20107;-78
2022/10/27 08:31:47;;;;;;;7.90;7.30;;;14.50;99.90;;;;;;5099769;28;20454;-79
2022/10/27 08:34:12;;;;;;;5.68;5.38;;;14.70;99.90;;;;;;5099508;28;20047;-94
2022/10/27 08:36:38;;;;;;;0.20;0.20;;;14.00;99.90;;;;;;5081772;28;20023;-76
2022/10/27 08:39:05;;;;;;;0.52;0.52;;;15.00;99.90;;;;;;5099268;28;20024;-76
2022/10/27 08:41:43;;;;;;;0.60;0.60;;;15.00;99.90;;;;;;5080376;28;20269;-76
2022/10/27 08:44:17;;;;;;;0.20;0.20;;;16.40;99.90;;;;;;5080443;28;20450;-76
2022/10/27 08:46:56;;;;;;;4.13;2.65;;;15.30;99.90;;;;;;5099236;28;20028;-76
2022/10/27 08:49:40;;;;;;;1.58;1.50;;;15.30;99.90;;;;;;5099231;28;20016;-76
2022/10/27 08:52:18;;;;;;;0.50;0.50;;;15.30;99.90;;;;;;5099184;28;20572;-80
2022/10/27 08:54:57;;;;;;;1.70;1.60;;;15.40;99.90;;;;;;5099029;28;20589;-82
2022/10/27 08:57:30;;;;;;;0.75;0.75;;;15.50;99.90;;;;;;5098559;28;20608;-76
2022/10/27 08:59:57;;;;;;;2.40;2.30;;;15.40;99.90;;;;;;5099181;28;20019;-76
2022/10/27 09:02:40;;;;;;;0.95;0.95;;;15.50;99.90;;;;;;5098890;28;20478;-85
2022/10/27 09:05:31;;;;;;;1.50;1.40;;;15.60;99.90;;;;;;5080455;28;20260;-80
2022/10/27 09:07:59;;;;;;;0.13;0.13;;;15.80;99.90;;;;;;5098798;28;20261;-76
2022/10/27 09:10:39;;;;;;;0.20;0.20;;;16.00;99.90;;;;;;5080050;28;20127;-75
2022/10/27 09:13:40;;;;;;;0.25;0.25;;;16.20;99.90;;;;;;5080790;28;20552;-82
2022/10/27 09:16:11;;;;;;;5.30;4.80;;;16.00;99.90;;;;;;5098833;28;20342;-79
2022/10/27 09:18:45;;;;;;;13.95;5.30;;;16.30;99.90;;;;;;5100300;28;20311;-76
2022/10/27 09:21:21;;;;;;;0.52;0.52;;;16.50;99.90;;;;;;5099749;28;20012;-77
2022/10/27 09:23:56;;;;;;;0.20;0.20;;;16.60;99.90;;;;;;5099314;28;20046;-76
2022/10/27 09:26:28;;;;;;;0.20;0.20;;;18.30;99.90;;;;;;5099265;28;20470;-76
2022/10/27 09:28:54;;;;;;;4.18;1.98;;;17.00;99.90;;;;;;5099163;28;20028;-80
2022/10/27 09:31:25;;;;;;;1.52;1.40;;;17.00;99.90;;;;;;5080340;28;20027;-88
2022/10/27 09:33:56;;;;;;;2.80;2.70;;;16.90;99.90;;;;;;5077445;28;20040;-76
2022/10/27 09:36:23;;;;;;;1.40;1.30;;;17.00;99.90;;;;;;5093911;28;20080;-78
2022/10/27 09:38:49;;;;;;;5.50;5.28;;;17.20;99.90;;;;;;5098561;28;20319;-77
2022/10/27 09:41:14;;;;;;;1.58;1.50;;;17.40;99.90;;;;;;5098080;28;20554;-81
2022/10/27 09:43:40;;;;;;;0.77;0.77;;;17.50;99.90;;;;;;5098315;28;20035;-76
2022/10/27 09:46:16;;;;;;;0.50;0.50;;;17.60;99.90;;;;;;5098968;28;20024;-77
2022/10/27 09:48:42;;;;;;;0.88;0.88;;;17.70;99.90;;;;;;5100983;28;20019;-75
2022/10/27 09:51:20;;;;;;;0.20;0.20;;;17.80;99.90;;;;;;5100324;28;20611;-77
2022/10/27 09:53:53;;;;;;;0.95;0.95;;;18.00;99.90;;;;;;5099770;28;20031;-77
2022/10/27 09:56:25;;;;;;;2.53;2.38;;;17.90;99.90;;;;;;5098683;28;20047;-78
2022/10/27 09:58:57;;;;;;;0.95;0.95;;;18.00;99.90;;;;;;5098524;28;20043;-80
2022/10/27 10:01:27;;;;;;;2.53;2.28;;;18.00;99.90;;;;;;5098406;28;20040;-77
2022/10/27 10:03:58;;;;;;;0.52;0.52;;;18.30;99.90;;;;;;5095078;28;20023;-80
2022/10/27 10:06:36;;;;;;;0.20;0.20;;;18.40;99.90;;;;;;5093446;28;20040;-82
2022/10/27 10:09:20;;;;;;;2.05;1.95;;;18.20;99.90;;;;;;5079849;28;20080;-93
2022/10/27 10:11:46;;;;;;;0.22;0.22;;;18.20;99.90;;;;;;5097795;28;20320;-76
2022/10/27 10:14:23;;;;;;;0.85;0.73;;;18.40;99.90;;;;;;5098091;28;20050;-76
2022/10/27 10:16:51;;;;;;;2.17;2.03;;;18.60;99.90;;;;;;5097756;28;20231;-76
2022/10/27 10:19:20;;;;;;;0.40;0.40;;;18.40;99.90;;;;;;5099953;28;20421;-92
2022/10/27 10:21:48;;;;;;;2.80;2.70;;;18.70;99.90;;;;;;5100711;28;20023;-78
2022/10/27 10:24:35;;;;;;;2.42;2.28;;;18.80;99.90;;;;;;5081797;28;20050;-76
2022/10/27 10:27:04;;;;;;;1.17;1.13;;;18.90;99.90;;;;;;5080042;28;20144;-76
2022/10/27 10:29:45;;;;;;;1.35;1.30;;;19.00;99.90;;;;;;5100663;28;20117;-79
2022/10/27 10:32:24;;;;;;;0.35;0.35;;;19.20;99.90;;;;;;5098152;28;20110;-77
2022/10/27 10:34:53;;;;;;;0.45;0.45;;;19.40;99.90;;;;;;5097773;28;20502;-82
2022/10/27 10:37:32;;;;;;;0.30;0.30;;;19.50;99.90;;;;;;5079315;28;20456;-79
2022/10/27 10:40:13;;;;;;;0.98;0.98;;;19.60;99.90;;;;;;5098085;28;20019;-76
2022/10/27 10:42:47;;;;;;;2.05;1.95;;;19.70;99.90;;;;;;5097759;28;20559;-77
2022/10/27 10:45:21;;;;;;;0.50;0.50;;;19.80;99.90;;;;;;5098138;28;20061;-77
2022/10/27 10:47:49;;;;;;;;;;;19.90;99.90;;;;;;5098447;28;20038;-76
2022/10/27 10:50:16;;;;;;;0.52;0.52;;;20.00;99.90;;;;;;5098258;28;19915;-80
2022/10/27 10:52:48;;;;;;;0.20;0.20;;;19.90;99.90;;;;;;5097957;28;20110;-77
2022/10/27 10:55:35;;;;;;;0.98;0.80;;;20.10;99.90;;;;;;5097929;28;20028;-82
2022/10/27 10:58:01;;;;;;;6.32;1.77;;;20.30;99.90;;;;;;5097703;28;20026;-78
2022/10/27 11:00:29;;;;;;;0.20;0.20;;;20.40;99.90;;;;;;5099081;28;20338;-75
2022/10/27 11:03:04;;;;;;;2.03;1.83;;;20.50;99.90;;;;;;5099823;28;20155;-77
2022/10/27 11:05:32;;;;;;;0.40;0.40;;;20.70;99.70;;;;;;5098381;28;20243;-84
2022/10/27 11:07:59;;;;;;;0.85;0.82;;;20.80;99.20;;;;;;5097625;28;20016;-77
2022/10/27 11:10:32;;;;;;;1.33;1.23;;;21.00;99.60;;;;;;5097350;28;20381;-77
2022/10/27 11:13:28;;;;;;;1.00;1.00;;;21.00;98.80;;;;;;5081712;28;20456;-88
2022/10/27 11:16:00;;;;;;;2.25;1.63;;;21.00;98.50;;;;;;4998258;28;20113;-76
2022/10/27 11:18:45;;;;;;;0.40;0.40;;;21.10;98.50;;;;;;4999133;28;20287;-84
2022/10/27 11:21:30;;;;;;;0.73;0.73;;;21.10;98.60;;;;;;4998585;28;20034;-79
2022/10/27 11:24:02;;;;;;;3.75;2.17;;;21.10;98.10;;;;;;4998224;28;20030;-77
2022/10/27 11:26:48;;;;;;;0.55;0.55;;;21.30;97.90;;;;;;4998166;28;20026;-79
2022/10/27 11:29:25;;;;;;;2.05;1.95;;;21.40;97.70;;;;;;4997909;28;20072;-81
2022/10/27 11:32:21;;;;;;;0.65;0.65;;;21.50;98.00;;;;;;4998054;28;20049;-82
2022/10/27 11:35:05;;;;;;;2.65;1.15;;;21.60;97.40;;;;;;4981036;28;20619;-81
2022/10/27 11:37:49;;;;;;;0.30;0.30;;;21.60;97.30;;;;;;4998078;28;20529;-86
2022/10/27 11:40:42;;;;;;;5.68;3.13;;;21.80;96.90;;;;;;4999345;28;20356;-81
2022/10/27 11:43:24;;;;;;;7.88;3.90;;;21.90;96.80;;;;;;4991515;28;20286;-77
2022/10/27 11:45:56;;;;;;;3.47;3.22;;;21.90;96.50;;;;;;4997897;28;20045;-80
2022/10/27 11:48:35;;;;;;;1.75;1.65;;;21.70;96.80;;;;;;4997891;28;20034;-79
2022/10/27 11:51:15;;;;;;;0.50;0.50;;;21.90;97.00;;;;;;4998194;28;20536;-77
2022/10/27 11:53:41;;;;;;;23.00;1.95;;;21.80;96.70;;;;;;5085951;28;20043;-77
2022/10/27 11:56:47;;;;;;;2.55;2.35;;;21.70;96.80;;;;;;5101375;28;20223;-84
2022/10/27 11:59:29;;;;;;;7.35;6.35;;;21.90;96.90;;;;;;5100575;28;20019;-78
2022/10/27 12:02:13;;;;;;;0.95;0.82;;;21.70;97.30;;;;;;5081997;28;20011;-84
2022/10/27 12:04:58;;;;;;;1.65;1.33;;;22.20;96.30;;;;;;5091926;28;20730;-81
2022/10/27 12:07:32;;;;;;;0.82;0.82;;;22.40;96.00;;;;;;5100554;28;20224;-88
2022/10/27 12:10:30;;;;;;;0.77;0.77;;;22.60;95.50;;;;;;5102602;28;20026;-81
2022/10/27 12:13:14;;;;;;;1.55;0.85;;;22.70;95.30;;;;;;4982683;28;20125;-77
2022/10/27 12:15:50;;;;;;;1.23;1.10;;;22.80;95.00;;;;;;4983393;28;20038;-86
2022/10/27 12:18:32;;;;;;;0.98;0.98;;;22.90;94.70;;;;;;4997878;28;20270;-89
2022/10/27 12:21:31;;;;;;;0.25;0.25;;;23.00;94.40;;;;;;4981385;28;20258;-86
2022/10/27 12:24:14;;;;;;;0.20;0.20;;;23.10;93.90;;;;;;4996994;28;20212;-82
2022/10/27 12:26:57;;;;;;;1.02;0.90;;;23.20;93.90;;;;;;4997155;28;20026;-85
2022/10/27 12:29:30;;;;;;;1.83;1.73;;;23.50;93.70;;;;;;4997347;28;20152;-78
2022/10/27 12:32:07;;;;;;;1.00;1.00;;;23.60;93.50;;;;;;4996981;28;20026;-78
2022/10/27 12:34:41;;;;;;;0.45;0.45;;;23.80;93.10;;;;;;4997150;28;20085;-77
2022/10/27 12:37:18;;;;;;;2.72;1.30;;;24.00;93.30;;;;;;4981177;28;20493;-84
2022/10/27 12:40:17;;;;;;;0.30;0.30;;;24.30;92.50;;;;;;4997206;28;20049;-77
2022/10/27 12:42:51;;;;;;;0.70;0.70;;;24.40;92.10;;;;;;4958047;28;20042;-76
2022/10/27 12:45:48;;;;;;;2.80;2.60;;;24.40;91.60;;;;;;4958374;28;20035;-78
2022/10/27 12:48:17;;;;;;;4.53;0.95;;;24.60;91.10;;;;;;4942038;28;20553;-80
2022/10/27 12:51:00;;;;;;;0.82;0.80;;;24.30;91.40;;;;;;5020465;28;20108;-80
2022/10/27 12:53:57;;;;;;;0.10;0.10;;;24.60;91.40;;;;;;5037001;28;20616;-79
2022/10/27 12:56:32;;;;;;;1.08;1.00;;;24.60;90.90;;;;;;5036463;28;20318;-81
2022/10/27 12:59:12;;;;;;;0.65;0.63;;;24.50;90.70;;;;;;5035832;28;20515;-78
2022/10/27 13:01:46;;;;;;;0.10;0.10;;;24.50;90.50;;;;;;5039286;28;20025;-79
2022/10/27 13:04:23;;;;;;;0.30;0.30;;;24.80;90.80;;;;;;5038243;28;20044;-82
2022/10/27 13:07:16;;;;;;;2.78;2.58;;;24.70;89.80;;;;;;5039291;28;20052;-80
2022/10/27 13:10:19;;;;;;;0.20;0.20;;;24.60;90.30;;;;;;5036557;28;20025;-77
2022/10/27 13:13:15;;;;;;;1.40;1.30;;;24.50;90.10;;;;;;5037036;28;20029;-82
2022/10/27 13:16:05;;;;;;;0.52;0.52;;;24.60;90.10;;;;;;4977505;28;20058;-78
2022/10/27 13:18:39;;;;;;;1.60;0.88;;;24.50;90.20;;;;;;4977806;28;20026;-77
2022/10/27 13:21:26;;;;;;;0.40;0.38;;;24.50;90.00;;;;;;5016361;28;20061;-78
2022/10/27 13:24:07;;;;;;;0.22;0.22;;;24.70;90.10;;;;;;5016448;28;20116;-90
2022/10/27 13:26:53;;;;;;;1.02;1.02;;;24.80;89.20;;;;;;5016236;28;20046;-81
2022/10/27 13:29:29;;;;;;;1.75;1.65;;;25.00;88.50;;;;;;5016279;28;20338;-79
2022/10/27 13:32:19;;;;;;;0.50;0.50;;;25.40;86.70;;;;;;5015970;28;20058;-78
2022/10/27 13:34:59;;;;;;;0.60;0.60;;;25.40;86.70;;;;;;5016192;28;20787;-90
2022/10/27 13:37:48;;;;;;;0.20;0.20;;;25.60;85.10;;;;;;5016506;28;20511;-82
2022/10/27 13:40:16;;;;;;;1.17;1.17;;;25.60;83.90;;;;;;5016240;28;20029;-77
2022/10/27 13:42:43;;;;;;;0.60;0.50;;;25.70;83.20;;;;;;5015671;28;20080;-85
2022/10/27 13:45:38;;;;;;;0.77;0.68;;;25.80;82.20;;;;;;5016535;28;20140;-78
2022/10/27 13:48:06;;;;;;;0.10;0.10;;;25.70;81.90;;;;;;4999031;28;20455;-78
2022/10/27 13:51:45;;;;;;;0.13;0.13;;;25.70;81.30;;;;;;5032475;28;20381;-82
2022/10/27 13:54:47;;;;;;;0.10;0.10;;;25.80;81.00;;;;;;4918507;29;20546;-91
2022/10/27 13:57:43;;;;;;;1.88;1.77;;;26.10;80.00;;;;;;4918346;29;20170;-79
2022/10/27 14:00:18;;;;;;;0.10;0.10;;;26.10;79.30;;;;;;4902635;29;20388;-77
2022/10/27 14:03:01;;;;;;;0.00;0.00;;;26.20;78.40;;;;;;4917600;29;20074;-78
2022/10/27 14:05:32;;;;;;;3.95;3.50;;;26.30;78.40;;;;;;4917945;29;20159;-80
2022/10/27 14:07:59;;;;;;;2.15;2.05;;;26.30;77.10;;;;;;4918577;29;20028;-77
2022/10/27 14:10:27;;;;;;;3.08;1.70;;;26.40;76.80;;;;;;4919509;29;20122;-77